createdAt,value
2022-12-03T12:01:59.247Z,117.25
2022-12-03T12:03:44.556Z,116.50
2022-12-03T12:07:10.987Z,104.75
2022-12-03T12:08:56.162Z,106.00
2022-12-03T12:10:40.460Z,110.25
2022-12-03T12:12:39.037Z,103.25
2022-12-03T12:14:12.169Z,107.00
2022-12-03T12:15:44.206Z,104.50
2022-12-03T12:17:29.499Z,97.50
2022-12-03T12:19:27.766Z,94.50
2022-12-03T12:21:37.269Z,87.25
2022-12-03T12:23:22.593Z,98.50
2022-12-03T12:24:56.045Z,89.25
2022-12-03T12:26:28.023Z,87.25
2022-12-03T12:27:59.683Z,86.00
2022-12-03T12:29:31.399Z,85.75
2022-12-03T12:31:03.247Z,72.00
2022-12-03T12:32:42.043Z,83.50
2022-12-03T12:34:13.776Z,81.25
2022-12-03T12:35:45.567Z,80.50
2022-12-03T12:37:32.585Z,78.25
2022-12-03T12:39:14.294Z,78.25
2022-12-03T12:40:49.191Z,75.75
2022-12-03T12:42:36.463Z,72.25
2022-12-03T12:44:11.222Z,72.75
2022-12-03T12:45:43.288Z,65.60
2022-12-03T12:47:15.045Z,71.20
2022-12-03T12:48:46.729Z,68.20
2022-12-03T12:50:18.603Z,62.80
2022-12-03T12:51:50.457Z,63.00
2022-12-03T12:53:26.453Z,62.50
2022-12-03T12:55:04.452Z,56.25
2022-12-03T12:56:36.970Z,65.00
2022-12-03T12:58:14.010Z,67.80
2022-12-03T12:59:45.743Z,75.80
2022-12-03T13:01:21.462Z,72.75
2022-12-03T13:02:55.346Z,66.60
2022-12-03T13:04:27.153Z,74.50
2022-12-03T13:07:48.256Z,78.25
2022-12-03T13:09:21.715Z,84.25
2022-12-03T13:10:54.874Z,90.50
2022-12-03T13:12:27.036Z,91.50
2022-12-03T13:13:58.726Z,98.50
2022-12-03T13:15:35.625Z,93.00
2022-12-03T13:17:18.951Z,100.50
2022-12-03T13:18:54.792Z,101.50
2022-12-03T13:20:26.603Z,100.25
2022-12-03T13:22:01.941Z,100.25
2022-12-03T13:23:34.665Z,98.50
2022-12-03T13:25:58.219Z,100.25
2022-12-03T13:27:32.764Z,98.50
2022-12-03T13:29:15.176Z,105.50
2022-12-03T13:30:47.002Z,101.25
2022-12-03T13:32:29.243Z,99.00
2022-12-03T13:34:00.949Z,144.67
2022-12-03T13:35:36.009Z,128.67
2022-12-03T13:37:13.277Z,115.50
2022-12-03T13:38:45.000Z,102.75
2022-12-03T13:40:19.428Z,106.75
2022-12-03T13:42:09.846Z,127.50
2022-12-03T13:43:44.529Z,182.25
2022-12-03T13:45:16.451Z,129.67
2022-12-03T13:46:48.180Z,130.67
2022-12-03T13:48:23.613Z,114.25
2022-12-03T13:50:03.567Z,109.50
2022-12-03T13:51:35.401Z,108.50
2022-12-03T13:53:25.082Z,97.00
2022-12-03T13:54:56.903Z,106.00
2022-12-03T13:56:29.835Z,113.00
2022-12-03T13:58:01.561Z,116.75
2022-12-03T13:59:33.363Z,109.25
2022-12-03T14:01:05.387Z,122.50
2022-12-03T14:02:37.206Z,114.00
2022-12-03T14:04:09.109Z,120.00
2022-12-03T14:05:40.846Z,118.25
2022-12-03T14:07:12.598Z,115.50
2022-12-03T14:08:44.351Z,124.75
2022-12-03T14:10:16.886Z,121.50
2022-12-03T14:12:07.351Z,113.00
2022-12-03T14:13:39.109Z,115.50
2022-12-03T14:15:11.372Z,117.50
2022-12-03T14:16:43.115Z,112.50
2022-12-03T14:18:14.840Z,114.25
2022-12-03T14:19:46.545Z,117.50
2022-12-03T14:21:18.270Z,118.50
2022-12-03T14:22:51.288Z,118.00
2022-12-03T14:24:25.709Z,124.75
2022-12-03T14:25:57.541Z,126.00
2022-12-03T14:27:29.414Z,129.50
2022-12-03T14:29:05.847Z,118.00
2022-12-03T14:30:40.200Z,127.75
2022-12-03T14:32:12.206Z,130.25
2022-12-03T14:33:44.068Z,121.25
2022-12-03T14:35:15.772Z,120.25
2022-12-03T14:36:47.548Z,127.50
2022-12-03T14:38:19.216Z,123.50
2022-12-03T14:39:51.230Z,125.25
2022-12-03T14:41:41.525Z,120.50
2022-12-03T14:43:13.223Z,124.25
2022-12-03T14:44:46.604Z,115.25
2022-12-03T14:46:18.469Z,121.75
2022-12-03T14:47:50.207Z,109.75
2022-12-03T14:49:22.302Z,112.50
2022-12-03T14:50:54.045Z,108.25
2022-12-03T14:52:25.837Z,114.50
2022-12-03T14:53:57.530Z,185.75
2022-12-03T14:55:29.243Z,137.00
2022-12-03T14:57:02.341Z,142.00
2022-12-03T14:58:34.343Z,148.00
2022-12-03T15:00:06.814Z,144.33
2022-12-03T15:01:38.598Z,132.67
2022-12-03T15:03:12.308Z,137.67
2022-12-03T15:04:44.030Z,131.67
2022-12-03T15:06:15.775Z,128.67
2022-12-03T15:07:47.510Z,135.67
2022-12-03T15:09:19.428Z,123.67
2022-12-03T15:10:51.144Z,124.25
2022-12-03T15:12:22.785Z,128.50
2022-12-03T15:13:54.494Z,121.25
2022-12-03T15:15:27.066Z,121.00
2022-12-03T15:16:58.957Z,120.50
2022-12-03T15:18:31.160Z,119.50
2022-12-03T15:20:03.109Z,116.50
2022-12-03T15:21:35.027Z,110.75
2022-12-03T15:23:09.905Z,113.50
2022-12-03T15:24:45.611Z,108.75
2022-12-03T15:26:17.281Z,104.50
2022-12-03T15:27:48.929Z,112.75
2022-12-03T15:29:20.859Z,96.75
2022-12-03T15:30:52.610Z,97.50
2022-12-03T15:32:24.633Z,101.25
2022-12-03T15:33:56.265Z,97.00
2022-12-03T15:35:28.429Z,97.50
2022-12-03T15:37:01.924Z,92.00
2022-12-03T15:38:43.337Z,90.25
2022-12-03T15:42:04.264Z,86.00
2022-12-03T15:43:35.965Z,82.50
2022-12-03T15:45:13.440Z,82.00
2022-12-03T15:46:46.942Z,81.00
2022-12-03T15:48:18.648Z,88.00
2022-12-03T15:49:50.333Z,90.50
2022-12-03T15:51:22.002Z,95.50
2022-12-03T15:54:45.796Z,102.50
2022-12-03T15:56:17.512Z,91.50
2022-12-03T15:59:38.910Z,95.75
2022-12-03T16:01:10.719Z,102.00
2022-12-03T16:02:46.214Z,95.75
2022-12-03T16:04:20.788Z,92.50
2022-12-03T16:05:52.470Z,89.00
2022-12-03T16:07:24.142Z,95.00
2022-12-03T16:08:55.826Z,90.75
2022-12-03T16:10:27.480Z,95.25
2022-12-03T16:11:59.155Z,87.75
2022-12-03T16:13:30.889Z,87.75
2022-12-03T16:15:02.572Z,89.50
2022-12-03T16:16:34.254Z,86.75
2022-12-03T16:18:06.079Z,84.50
2022-12-03T16:19:37.777Z,82.25
2022-12-03T16:21:09.439Z,82.00
2022-12-03T16:22:41.109Z,76.50
2022-12-03T16:24:12.936Z,76.00
2022-12-03T16:25:44.764Z,83.50
2022-12-03T16:27:16.403Z,88.75
2022-12-03T16:28:48.271Z,78.25
2022-12-03T16:30:20.159Z,90.00
2022-12-03T16:31:51.819Z,93.50
2022-12-03T16:33:27.520Z,95.75
2022-12-03T16:34:59.751Z,96.00
2022-12-03T16:36:31.723Z,97.50
2022-12-03T16:38:03.416Z,99.00
2022-12-03T16:41:22.568Z,93.25
2022-12-03T16:42:54.397Z,91.75
2022-12-03T16:44:52.424Z,100.25
2022-12-03T16:46:27.131Z,94.50
2022-12-03T16:49:49.640Z,89.25
2022-12-03T16:51:21.439Z,92.50
2022-12-03T16:52:53.180Z,89.25
2022-12-03T16:54:24.849Z,86.50
2022-12-03T16:55:56.796Z,89.00
2022-12-03T16:57:33.330Z,88.25
2022-12-03T16:59:05.495Z,82.25
2022-12-03T17:00:37.258Z,85.25
2022-12-03T17:02:12.998Z,85.50
2022-12-03T17:03:44.839Z,86.75
2022-12-03T17:05:16.560Z,80.25
2022-12-03T17:06:48.246Z,78.75
2022-12-03T17:08:20.147Z,84.50
2022-12-03T17:09:51.966Z,86.00
2022-12-03T17:11:23.828Z,80.00
2022-12-03T17:13:11.175Z,81.00
2022-12-03T17:14:43.049Z,81.25
2022-12-03T17:16:14.758Z,78.00
2022-12-03T17:17:46.626Z,83.75
2022-12-03T17:19:18.313Z,82.50
2022-12-03T17:20:49.994Z,86.75
2022-12-03T17:22:21.699Z,80.75
2022-12-03T17:23:53.425Z,81.50
2022-12-03T17:25:25.234Z,82.00
2022-12-03T17:26:58.051Z,86.00
2022-12-03T17:28:29.803Z,89.50
2022-12-03T17:30:01.531Z,83.25
2022-12-03T17:31:38.425Z,84.75
2022-12-03T17:33:13.257Z,83.00
2022-12-03T17:34:44.984Z,82.50
2022-12-03T17:36:16.710Z,81.25
2022-12-03T17:37:48.408Z,79.75
2022-12-03T17:39:20.113Z,78.00
2022-12-03T17:40:51.912Z,65.25
2022-12-03T17:42:23.618Z,79.25
2022-12-03T17:43:55.318Z,71.00
2022-12-03T17:45:27.056Z,76.00
2022-12-03T17:46:58.861Z,71.50
2022-12-03T17:48:31.368Z,73.00
2022-12-03T17:50:03.139Z,72.60
2022-12-03T17:51:34.919Z,69.40
2022-12-03T17:53:10.188Z,74.20
2022-12-03T17:55:08.963Z,70.60
2022-12-03T17:56:33.706Z,68.00
2022-12-03T17:58:05.600Z,63.20
2022-12-03T17:59:37.320Z,67.60
2022-12-03T18:01:10.452Z,61.40
2022-12-03T18:02:42.093Z,61.00
2022-12-03T18:04:13.771Z,63.40
2022-12-03T18:05:45.419Z,60.40
2022-12-03T18:07:17.082Z,58.50
2022-12-03T18:08:48.726Z,59.75
2022-12-03T18:10:20.404Z,58.75
2022-12-03T18:11:52.084Z,55.50
2022-12-03T18:13:23.823Z,54.50
2022-12-03T18:14:55.486Z,50.00
2022-12-03T18:16:28.938Z,51.50
2022-12-03T18:18:00.693Z,51.75
2022-12-03T18:19:32.415Z,49.25
2022-12-03T18:21:04.326Z,49.25
2022-12-03T18:22:36.114Z,50.25
2022-12-03T18:24:08.031Z,38.25
2022-12-03T18:25:39.755Z,43.25
2022-12-03T18:27:11.423Z,44.75
2022-12-03T18:28:43.165Z,41.50
2022-12-03T18:30:15.079Z,42.00
2022-12-03T18:31:46.843Z,44.00
2022-12-03T18:33:19.049Z,37.00
2022-12-03T18:34:50.884Z,38.75
2022-12-03T18:36:23.619Z,37.00
2022-12-03T18:37:55.346Z,127.00
2022-12-03T18:39:33.844Z,156.33
2022-12-03T18:41:05.585Z,98.25
2022-12-03T18:42:37.206Z,98.75
2022-12-03T18:44:09.755Z,88.75
2022-12-03T18:45:41.762Z,90.25
2022-12-03T18:47:17.821Z,80.00
2022-12-03T18:48:49.695Z,83.25
2022-12-03T18:50:21.343Z,77.75
2022-12-03T18:51:59.069Z,85.75
2022-12-03T18:53:31.338Z,92.75
2022-12-03T18:55:03.053Z,90.25
2022-12-03T18:56:34.656Z,96.75
2022-12-03T18:58:06.419Z,91.50
2022-12-03T18:59:38.164Z,87.50
2022-12-03T19:01:20.370Z,98.25
2022-12-03T19:03:03.033Z,97.25
2022-12-03T19:04:35.373Z,97.25
2022-12-03T19:06:16.922Z,90.75
2022-12-03T19:07:55.093Z,96.75
2022-12-03T19:09:26.849Z,90.00
2022-12-03T19:10:59.583Z,97.25
2022-12-03T19:12:31.740Z,95.00
2022-12-03T19:14:03.413Z,97.50
2022-12-03T19:15:38.642Z,94.25
2022-12-03T19:17:10.383Z,88.25
2022-12-03T19:18:42.093Z,92.75
2022-12-03T19:20:13.779Z,87.50
2022-12-03T19:21:45.435Z,85.00
2022-12-03T19:23:17.474Z,86.00
2022-12-03T19:24:49.129Z,85.00
2022-12-03T19:26:20.822Z,80.50
2022-12-03T19:27:55.090Z,78.25
2022-12-03T19:29:27.041Z,73.75
2022-12-03T19:31:03.225Z,73.25
2022-12-03T19:32:35.274Z,67.50
2022-12-03T19:34:06.969Z,71.25
2022-12-03T19:35:41.483Z,76.50
2022-12-03T19:37:13.349Z,74.00
2022-12-03T19:38:47.511Z,75.40
2022-12-03T19:40:21.363Z,63.60
2022-12-03T19:41:53.037Z,67.80
2022-12-03T19:43:24.696Z,66.20
2022-12-03T19:44:56.472Z,63.40
2022-12-03T19:46:31.323Z,65.60
2022-12-03T19:48:03.099Z,64.80
2022-12-03T19:49:34.842Z,58.75
2022-12-03T19:51:26.607Z,58.00
2022-12-03T19:52:58.598Z,57.50
2022-12-03T19:54:30.305Z,56.75
2022-12-03T19:56:09.932Z,55.50
2022-12-03T19:57:41.560Z,52.25
2022-12-03T19:59:13.515Z,52.00
2022-12-03T20:00:45.280Z,53.25
2022-12-03T20:02:17.052Z,50.00
2022-12-03T20:03:51.015Z,50.50
2022-12-03T20:05:22.832Z,66.80
2022-12-03T20:06:54.573Z,65.80
2022-12-03T20:08:26.216Z,71.50
2022-12-03T20:09:58.194Z,64.50
2022-12-03T20:11:31.417Z,75.00
2022-12-03T20:13:03.269Z,82.25
2022-12-03T20:14:34.953Z,69.00
2022-12-03T20:16:08.627Z,74.25
2022-12-03T20:17:40.339Z,74.00
2022-12-03T20:19:14.404Z,76.00
2022-12-03T20:20:46.066Z,74.50
2022-12-03T20:22:17.740Z,94.00
2022-12-03T20:23:49.494Z,97.50
2022-12-03T20:25:21.249Z,103.25
2022-12-03T20:26:52.872Z,101.75
2022-12-03T20:28:24.907Z,93.50
2022-12-03T20:29:57.016Z,97.50
2022-12-03T20:31:30.546Z,96.50
2022-12-03T20:33:02.367Z,106.00
2022-12-03T20:34:37.176Z,104.50
2022-12-03T20:36:09.591Z,100.25
2022-12-03T20:37:41.503Z,100.75
2022-12-03T20:39:13.172Z,112.25
2022-12-03T20:40:44.798Z,108.25
2022-12-03T20:42:16.495Z,120.25
2022-12-03T20:43:48.182Z,118.75
2022-12-03T20:45:19.932Z,114.25
2022-12-03T20:46:51.586Z,119.25
2022-12-03T20:48:23.262Z,116.25
2022-12-03T20:49:55.174Z,119.25
2022-12-03T20:51:29.710Z,118.50
2022-12-03T20:53:23.144Z,112.00
2022-12-03T20:57:45.266Z,109.50
2022-12-03T20:59:17.245Z,120.00
2022-12-03T21:00:49.239Z,129.00
2022-12-03T21:02:21.264Z,120.67
2022-12-03T21:03:54.218Z,126.00
2022-12-03T21:05:25.888Z,121.67
2022-12-03T21:06:57.752Z,126.00
2022-12-03T21:08:41.101Z,119.50
2022-12-03T21:10:32.607Z,114.33
2022-12-03T21:12:04.524Z,124.00
2022-12-03T21:13:36.314Z,113.00
2022-12-03T21:15:08.404Z,115.50
2022-12-03T21:18:33.970Z,112.50
2022-12-03T21:20:06.118Z,117.75
2022-12-03T21:21:37.839Z,107.25
2022-12-03T21:23:09.572Z,100.50
2022-12-03T21:24:42.825Z,107.00
2022-12-03T21:26:16.206Z,103.75
2022-12-03T21:27:47.870Z,100.25
2022-12-03T21:29:19.549Z,103.25
2022-12-03T21:30:52.360Z,103.25
2022-12-03T21:32:24.127Z,110.25
2022-12-03T21:33:56.140Z,103.00
2022-12-03T21:35:27.866Z,101.50
2022-12-03T21:36:59.583Z,92.50
2022-12-03T21:38:31.667Z,88.00
2022-12-03T21:40:03.586Z,89.50
2022-12-03T21:41:35.595Z,84.75
2022-12-03T21:43:07.312Z,86.75
2022-12-03T21:44:39.151Z,89.25
2022-12-03T21:47:09.509Z,96.75
2022-12-03T21:48:05.076Z,98.50
2022-12-03T21:49:38.469Z,101.75
2022-12-03T21:51:12.362Z,110.00
2022-12-03T21:52:44.041Z,114.25
2022-12-03T21:54:15.838Z,102.75
2022-12-03T21:55:47.582Z,106.75
2022-12-03T21:57:19.406Z,109.25
2022-12-03T21:58:51.053Z,110.00
2022-12-03T22:00:22.870Z,103.75
2022-12-03T22:01:54.788Z,99.25
2022-12-03T22:03:26.772Z,104.75
2022-12-03T22:04:58.508Z,96.25
2022-12-03T22:06:30.176Z,103.50
2022-12-03T22:08:01.939Z,99.50
2022-12-03T22:09:33.705Z,97.00
2022-12-03T22:11:07.441Z,95.50
2022-12-03T22:12:40.892Z,112.00
2022-12-03T22:14:12.799Z,97.75
2022-12-03T22:15:45.023Z,90.50
2022-12-03T22:17:16.819Z,93.25
2022-12-03T22:18:48.878Z,104.00
2022-12-03T22:20:20.576Z,104.25
2022-12-03T22:21:52.492Z,102.50
2022-12-03T22:23:24.292Z,105.00
2022-12-03T22:24:56.855Z,107.75
2022-12-03T22:26:28.699Z,99.75
2022-12-03T22:28:00.392Z,97.75
2022-12-03T22:29:32.464Z,98.00
2022-12-03T22:31:07.463Z,100.50
2022-12-03T22:32:39.131Z,95.25
2022-12-03T22:34:10.970Z,97.50
2022-12-03T22:35:42.704Z,95.25
2022-12-03T22:37:14.353Z,99.25
2022-12-03T22:38:46.033Z,100.50
2022-12-03T22:40:17.807Z,96.25
2022-12-03T22:41:49.472Z,91.25
2022-12-03T22:43:21.131Z,84.75
2022-12-03T22:44:52.831Z,89.75
2022-12-03T22:46:24.649Z,86.25
2022-12-03T22:47:56.505Z,81.25
2022-12-03T22:49:28.371Z,86.50
2022-12-03T22:51:00.056Z,86.25
2022-12-03T22:52:31.706Z,79.25
2022-12-03T22:54:03.936Z,82.25
2022-12-03T22:55:35.812Z,79.75
2022-12-03T22:57:07.535Z,77.75
2022-12-03T22:58:39.591Z,75.00
2022-12-03T23:00:11.806Z,77.50
2022-12-03T23:01:43.561Z,74.50
2022-12-03T23:03:15.386Z,75.50
2022-12-03T23:04:47.172Z,89.00
2022-12-03T23:06:18.976Z,90.50
2022-12-03T23:07:53.409Z,82.00
2022-12-03T23:09:25.136Z,91.00
2022-12-03T23:11:00.481Z,84.00
2022-12-03T23:12:33.182Z,94.75
2022-12-03T23:14:04.935Z,87.75
2022-12-03T23:15:36.762Z,86.75
2022-12-03T23:17:08.477Z,84.25
2022-12-03T23:18:40.187Z,89.00
2022-12-03T23:20:12.396Z,87.75
2022-12-03T23:21:44.133Z,92.75
2022-12-03T23:23:15.914Z,102.75
2022-12-03T23:24:48.119Z,93.75
2022-12-03T23:26:19.755Z,85.25
2022-12-03T23:27:51.476Z,96.75
2022-12-03T23:29:23.126Z,96.75
2022-12-03T23:30:55.208Z,96.25
2022-12-03T23:32:26.919Z,99.75
2022-12-03T23:34:00.037Z,99.75
